sensor_id;sensor_type;location;lat;lon;timestamp;temperature;humidity
69823;SHT31;57119;52.516;13.508;2023-04-09T00:00:32;3.19;97.60
69823;SHT31;57119;52.516;13.508;2023-04-09T00:02:57;3.12;97.43
69823;SHT31;57119;52.516;13.508;2023-04-09T00:05:23;3.11;97.39
69823;SHT31;57119;52.516;13.508;2023-04-09T00:07:48;3.12;97.50
69823;SHT31;57119;52.516;13.508;2023-04-09T00:10:13;3.12;97.43
69823;SHT31;57119;52.516;13.508;2023-04-09T00:12:38;3.06;97.52
69823;SHT31;57119;52.516;13.508;2023-04-09T00:15:04;2.92;98.14
69823;SHT31;57119;52.516;13.508;2023-04-09T00:17:30;2.89;98.03
69823;SHT31;57119;52.516;13.508;2023-04-09T00:19:55;2.91;97.95
69823;SHT31;57119;52.516;13.508;2023-04-09T00:22:21;2.87;98.10
69823;SHT31;57119;52.516;13.508;2023-04-09T00:24:46;2.89;98.01
69823;SHT31;57119;52.516;13.508;2023-04-09T00:27:11;2.83;98.47
69823;SHT31;57119;52.516;13.508;2023-04-09T00:29:37;2.77;98.13
69823;SHT31;57119;52.516;13.508;2023-04-09T00:32:02;2.65;98.39
69823;SHT31;57119;52.516;13.508;2023-04-09T00:34:27;2.71;98.49
69823;SHT31;57119;52.516;13.508;2023-04-09T00:36:53;2.68;98.33
69823;SHT31;57119;52.516;13.508;2023-04-09T00:39:18;2.49;98.43
69823;SHT31;57119;52.516;13.508;2023-04-09T00:41:43;2.61;98.90
69823;SHT31;57119;52.516;13.508;2023-04-09T00:44:09;2.50;98.73
69823;SHT31;57119;52.516;13.508;2023-04-09T00:46:34;2.44;99.02
69823;SHT31;57119;52.516;13.508;2023-04-09T00:49:00;2.47;99.07
69823;SHT31;57119;52.516;13.508;2023-04-09T00:51:25;2.44;98.87
69823;SHT31;57119;52.516;13.508;2023-04-09T00:53:51;2.32;98.65
69823;SHT31;57119;52.516;13.508;2023-04-09T00:56:17;2.09;99.11
69823;SHT31;57119;52.516;13.508;2023-04-09T00:58:44;2.22;99.83
69823;SHT31;57119;52.516;13.508;2023-04-09T01:01:09;2.19;99.63
69823;SHT31;57119;52.516;13.508;2023-04-09T01:03:35;2.26;99.41
69823;SHT31;57119;52.516;13.508;2023-04-09T01:06:08;2.30;99.02
69823;SHT31;57119;52.516;13.508;2023-04-09T01:08:54;2.13;99.46
69823;SHT31;57119;52.516;13.508;2023-04-09T01:14:07;2.09;99.89
69823;SHT31;57119;52.516;13.508;2023-04-09T01:16:36;2.16;99.46
69823;SHT31;57119;52.516;13.508;2023-04-09T01:19:10;1.95;99.49
69823;SHT31;57119;52.516;13.508;2023-04-09T01:21:40;2.06;99.99
69823;SHT31;57119;52.516;13.508;2023-04-09T01:24:20;1.99;99.99
69823;SHT31;57119;52.516;13.508;2023-04-09T01:26:53;2.02;99.99
69823;SHT31;57119;52.516;13.508;2023-04-09T01:29:21;2.03;99.66
69823;SHT31;57119;52.516;13.508;2023-04-09T01:31:48;2.06;99.99
69823;SHT31;57119;52.516;13.508;2023-04-09T01:34:15;1.99;99.94
69823;SHT31;57119;52.516;13.508;2023-04-09T01:36:42;1.86;99.99
69823;SHT31;57119;52.516;13.508;2023-04-09T01:39:09;1.94;99.99
69823;SHT31;57119;52.516;13.508;2023-04-09T01:41:36;1.99;99.99
69823;SHT31;57119;52.516;13.508;2023-04-09T01:44:02;1.92;99.89
69823;SHT31;57119;52.516;13.508;2023-04-09T01:46:28;1.74;99.95
69823;SHT31;57119;52.516;13.508;2023-04-09T01:48:54;1.60;99.99
69823;SHT31;57119;52.516;13.508;2023-04-09T01:51:21;1.40;99.99
69823;SHT31;57119;52.516;13.508;2023-04-09T01:53:47;1.55;99.99
69823;SHT31;57119;52.516;13.508;2023-04-09T01:56:13;1.58;99.99
69823;SHT31;57119;52.516;13.508;2023-04-09T01:58:38;1.61;99.99
69823;SHT31;57119;52.516;13.508;2023-04-09T02:01:29;1.34;99.99
69823;SHT31;57119;52.516;13.508;2023-04-09T02:04:00;1.30;99.99
69823;SHT31;57119;52.516;13.508;2023-04-09T02:09:17;1.51;99.99
69823;SHT31;57119;52.516;13.508;2023-04-09T02:11:46;1.24;99.99
69823;SHT31;57119;52.516;13.508;2023-04-09T02:14:12;1.03;99.99
69823;SHT31;57119;52.516;13.508;2023-04-09T02:16:39;1.27;99.99
69823;SHT31;57119;52.516;13.508;2023-04-09T02:19:05;1.31;99.99
69823;SHT31;57119;52.516;13.508;2023-04-09T02:21:31;1.41;99.99
69823;SHT31;57119;52.516;13.508;2023-04-09T02:23:56;1.41;99.99
69823;SHT31;57119;52.516;13.508;2023-04-09T02:26:22;1.44;99.99
69823;SHT31;57119;52.516;13.508;2023-04-09T02:28:48;1.40;99.99
69823;SHT31;57119;52.516;13.508;2023-04-09T02:31:13;1.41;99.99
69823;SHT31;57119;52.516;13.508;2023-04-09T02:33:39;1.44;99.99
69823;SHT31;57119;52.516;13.508;2023-04-09T02:36:05;1.41;99.99
69823;SHT31;57119;52.516;13.508;2023-04-09T02:38:30;1.16;99.99
69823;SHT31;57119;52.516;13.508;2023-04-09T02:40:56;1.23;99.99
69823;SHT31;57119;52.516;13.508;2023-04-09T02:43:21;1.26;99.99
69823;SHT31;57119;52.516;13.508;2023-04-09T02:45:47;1.36;99.99
69823;SHT31;57119;52.516;13.508;2023-04-09T02:48:12;1.40;99.99
69823;SHT31;57119;52.516;13.508;2023-04-09T02:50:38;1.36;99.99
69823;SHT31;57119;52.516;13.508;2023-04-09T02:53:03;1.31;99.99
69823;SHT31;57119;52.516;13.508;2023-04-09T02:55:29;1.37;99.99
69823;SHT31;57119;52.516;13.508;2023-04-09T02:57:54;1.41;99.99
69823;SHT31;57119;52.516;13.508;2023-04-09T03:00:19;1.33;99.99
69823;SHT31;57119;52.516;13.508;2023-04-09T03:02:45;1.36;99.99
69823;SHT31;57119;52.516;13.508;2023-04-09T03:05:10;1.27;99.99
69823;SHT31;57119;52.516;13.508;2023-04-09T03:07:36;1.29;99.99
69823;SHT31;57119;52.516;13.508;2023-04-09T03:10:01;1.22;99.99
69823;SHT31;57119;52.516;13.508;2023-04-09T03:12:26;1.07;99.99
69823;SHT31;57119;52.516;13.508;2023-04-09T03:14:52;0.99;99.99
69823;SHT31;57119;52.516;13.508;2023-04-09T03:17:17;1.03;99.99
69823;SHT31;57119;52.516;13.508;2023-04-09T03:19:42;0.85;99.99
69823;SHT31;57119;52.516;13.508;2023-04-09T03:22:08;1.03;99.99
69823;SHT31;57119;52.516;13.508;2023-04-09T03:24:33;1.03;99.99
69823;SHT31;57119;52.516;13.508;2023-04-09T03:26:59;1.12;99.99
69823;SHT31;57119;52.516;13.508;2023-04-09T03:29:24;1.12;99.99
69823;SHT31;57119;52.516;13.508;2023-04-09T03:31:50;1.10;99.99
69823;SHT31;57119;52.516;13.508;2023-04-09T03:34:15;1.02;99.99
69823;SHT31;57119;52.516;13.508;2023-04-09T03:36:40;1.04;99.99
69823;SHT31;57119;52.516;13.508;2023-04-09T03:39:06;1.00;99.99
69823;SHT31;57119;52.516;13.508;2023-04-09T03:41:31;0.93;99.99
69823;SHT31;57119;52.516;13.508;2023-04-09T03:43:57;0.95;99.99
69823;SHT31;57119;52.516;13.508;2023-04-09T03:46:22;0.88;99.99
69823;SHT31;57119;52.516;13.508;2023-04-09T03:48:47;0.92;99.99
69823;SHT31;57119;52.516;13.508;2023-04-09T03:51:14;0.99;99.99
69823;SHT31;57119;52.516;13.508;2023-04-09T03:53:40;0.99;99.99
69823;SHT31;57119;52.516;13.508;2023-04-09T03:56:06;0.93;99.99
69823;SHT31;57119;52.516;13.508;2023-04-09T03:58:32;0.91;99.99
69823;SHT31;57119;52.516;13.508;2023-04-09T04:00:57;0.91;99.99
69823;SHT31;57119;52.516;13.508;2023-04-09T04:03:23;0.89;99.99
69823;SHT31;57119;52.516;13.508;2023-04-09T04:05:48;0.88;99.99
69823;SHT31;57119;52.516;13.508;2023-04-09T04:08:13;0.86;99.99
69823;SHT31;57119;52.516;13.508;2023-04-09T04:10:39;0.92;99.99
69823;SHT31;57119;52.516;13.508;2023-04-09T04:13:08;0.89;99.99
69823;SHT31;57119;52.516;13.508;2023-04-09T04:15:38;0.86;99.99
69823;SHT31;57119;52.516;13.508;2023-04-09T04:18:05;1.02;99.99
69823;SHT31;57119;52.516;13.508;2023-04-09T04:20:32;1.06;99.99
69823;SHT31;57119;52.516;13.508;2023-04-09T04:22:57;1.29;99.99
69823;SHT31;57119;52.516;13.508;2023-04-09T04:25:22;1.60;99.99
69823;SHT31;57119;52.516;13.508;2023-04-09T04:27:48;1.71;99.99
69823;SHT31;57119;52.516;13.508;2023-04-09T04:30:13;1.79;99.99
69823;SHT31;57119;52.516;13.508;2023-04-09T04:32:38;1.98;99.99
69823;SHT31;57119;52.516;13.508;2023-04-09T04:35:04;2.15;99.99
69823;SHT31;57119;52.516;13.508;2023-04-09T04:37:29;2.22;99.99
69823;SHT31;57119;52.516;13.508;2023-04-09T04:39:55;2.30;99.99
69823;SHT31;57119;52.516;13.508;2023-04-09T04:42:20;2.40;99.99
69823;SHT31;57119;52.516;13.508;2023-04-09T04:44:47;2.49;99.99
69823;SHT31;57119;52.516;13.508;2023-04-09T04:47:12;2.58;99.99
69823;SHT31;57119;52.516;13.508;2023-04-09T04:49:37;2.70;99.99
69823;SHT31;57119;52.516;13.508;2023-04-09T04:52:03;2.83;99.99
69823;SHT31;57119;52.516;13.508;2023-04-09T04:54:28;2.88;99.99
69823;SHT31;57119;52.516;13.508;2023-04-09T04:56:54;3.02;99.99
69823;SHT31;57119;52.516;13.508;2023-04-09T04:59:20;3.01;99.99
69823;SHT31;57119;52.516;13.508;2023-04-09T05:01:45;2.95;99.99
69823;SHT31;57119;52.516;13.508;2023-04-09T05:04:11;3.09;99.99
69823;SHT31;57119;52.516;13.508;2023-04-09T05:06:36;3.04;99.99
69823;SHT31;57119;52.516;13.508;2023-04-09T05:09:01;3.04;99.99
69823;SHT31;57119;52.516;13.508;2023-04-09T05:11:27;3.11;99.99
69823;SHT31;57119;52.516;13.508;2023-04-09T05:13:52;3.13;99.99
69823;SHT31;57119;52.516;13.508;2023-04-09T05:16:19;3.26;99.99
69823;SHT31;57119;52.516;13.508;2023-04-09T05:18:45;3.29;99.99
69823;SHT31;57119;52.516;13.508;2023-04-09T05:21:10;3.39;99.99
69823;SHT31;57119;52.516;13.508;2023-04-09T05:23:36;3.50;99.99
69823;SHT31;57119;52.516;13.508;2023-04-09T05:26:01;3.60;99.99
69823;SHT31;57119;52.516;13.508;2023-04-09T05:28:27;3.73;99.99
69823;SHT31;57119;52.516;13.508;2023-04-09T05:30:52;3.77;99.99
69823;SHT31;57119;52.516;13.508;2023-04-09T05:33:18;3.87;99.99
69823;SHT31;57119;52.516;13.508;2023-04-09T05:35:43;3.94;99.99
69823;SHT31;57119;52.516;13.508;2023-04-09T05:38:08;4.05;99.99
69823;SHT31;57119;52.516;13.508;2023-04-09T05:40:34;4.24;99.99
69823;SHT31;57119;52.516;13.508;2023-04-09T05:43:00;4.35;99.99
69823;SHT31;57119;52.516;13.508;2023-04-09T05:45:25;4.36;99.99
69823;SHT31;57119;52.516;13.508;2023-04-09T05:47:53;4.33;99.99
69823;SHT31;57119;52.516;13.508;2023-04-09T05:50:19;4.33;99.99
69823;SHT31;57119;52.516;13.508;2023-04-09T05:52:44;4.25;99.99
69823;SHT31;57119;52.516;13.508;2023-04-09T05:55:10;4.15;99.99
69823;SHT31;57119;52.516;13.508;2023-04-09T05:57:35;4.41;99.99
69823;SHT31;57119;52.516;13.508;2023-04-09T06:00:01;4.41;99.99
69823;SHT31;57119;52.516;13.508;2023-04-09T06:02:26;4.36;99.99
69823;SHT31;57119;52.516;13.508;2023-04-09T06:04:52;4.52;99.99
69823;SHT31;57119;52.516;13.508;2023-04-09T06:07:17;4.66;99.99
69823;SHT31;57119;52.516;13.508;2023-04-09T06:09:42;4.83;99.99
69823;SHT31;57119;52.516;13.508;2023-04-09T06:12:08;4.97;99.99
69823;SHT31;57119;52.516;13.508;2023-04-09T06:14:34;4.98;99.99
69823;SHT31;57119;52.516;13.508;2023-04-09T06:16:59;5.02;99.99
69823;SHT31;57119;52.516;13.508;2023-04-09T06:19:25;5.12;99.99
69823;SHT31;57119;52.516;13.508;2023-04-09T06:21:50;5.27;99.99
69823;SHT31;57119;52.516;13.508;2023-04-09T06:24:16;5.36;99.99
69823;SHT31;57119;52.516;13.508;2023-04-09T06:26:41;5.45;99.99
69823;SHT31;57119;52.516;13.508;2023-04-09T06:29:06;5.56;99.99
69823;SHT31;57119;52.516;13.508;2023-04-09T06:31:32;5.38;99.99
69823;SHT31;57119;52.516;13.508;2023-04-09T06:33:58;5.46;99.99
69823;SHT31;57119;52.516;13.508;2023-04-09T06:36:23;5.65;99.99
69823;SHT31;57119;52.516;13.508;2023-04-09T06:38:49;5.73;99.99
69823;SHT31;57119;52.516;13.508;2023-04-09T06:41:14;5.86;99.99
69823;SHT31;57119;52.516;13.508;2023-04-09T06:43:39;5.96;99.99
69823;SHT31;57119;52.516;13.508;2023-04-09T06:46:05;6.00;99.99
69823;SHT31;57119;52.516;13.508;2023-04-09T06:48:31;5.91;99.99
69823;SHT31;57119;52.516;13.508;2023-04-09T06:50:56;5.97;99.99
69823;SHT31;57119;52.516;13.508;2023-04-09T06:53:21;6.13;99.99
69823;SHT31;57119;52.516;13.508;2023-04-09T06:55:47;6.17;99.99
69823;SHT31;57119;52.516;13.508;2023-04-09T06:58:12;6.11;99.99
69823;SHT31;57119;52.516;13.508;2023-04-09T07:00:37;6.20;99.99
69823;SHT31;57119;52.516;13.508;2023-04-09T07:03:03;6.18;99.99
69823;SHT31;57119;52.516;13.508;2023-04-09T07:05:29;6.17;99.99
69823;SHT31;57119;52.516;13.508;2023-04-09T07:07:55;6.32;99.99
69823;SHT31;57119;52.516;13.508;2023-04-09T07:10:20;6.34;99.99
69823;SHT31;57119;52.516;13.508;2023-04-09T07:12:46;6.25;99.99
69823;SHT31;57119;52.516;13.508;2023-04-09T07:15:11;6.31;99.99
69823;SHT31;57119;52.516;13.508;2023-04-09T07:17:37;6.32;99.99
69823;SHT31;57119;52.516;13.508;2023-04-09T07:20:03;6.58;99.99
69823;SHT31;57119;52.516;13.508;2023-04-09T07:22:28;6.62;99.83
69823;SHT31;57119;52.516;13.508;2023-04-09T07:24:55;6.46;99.91
69823;SHT31;57119;52.516;13.508;2023-04-09T07:27:25;6.50;99.99
69823;SHT31;57119;52.516;13.508;2023-04-09T07:29:52;6.65;99.61
69823;SHT31;57119;52.516;13.508;2023-04-09T07:32:18;6.73;99.71
69823;SHT31;57119;52.516;13.508;2023-04-09T07:34:43;6.72;99.71
69823;SHT31;57119;52.516;13.508;2023-04-09T07:37:09;6.61;99.32
69823;SHT31;57119;52.516;13.508;2023-04-09T07:39:35;6.87;99.22
69823;SHT31;57119;52.516;13.508;2023-04-09T07:42:04;6.95;98.22
69823;SHT31;57119;52.516;13.508;2023-04-09T07:44:33;6.89;98.57
69823;SHT31;57119;52.516;13.508;2023-04-09T07:47:03;6.79;98.97
69823;SHT31;57119;52.516;13.508;2023-04-09T07:49:29;6.90;98.05
69823;SHT31;57119;52.516;13.508;2023-04-09T07:51:56;7.01;98.36
69823;SHT31;57119;52.516;13.508;2023-04-09T07:54:21;7.08;97.65
69823;SHT31;57119;52.516;13.508;2023-04-09T07:56:47;7.35;96.99
69823;SHT31;57119;52.516;13.508;2023-04-09T07:59:13;7.13;97.15
69823;SHT31;57119;52.516;13.508;2023-04-09T08:01:40;7.30;96.68
69823;SHT31;57119;52.516;13.508;2023-04-09T08:04:05;7.34;96.23
69823;SHT31;57119;52.516;13.508;2023-04-09T08:06:31;7.44;96.59
69823;SHT31;57119;52.516;13.508;2023-04-09T08:08:56;7.21;96.99
69823;SHT31;57119;52.516;13.508;2023-04-09T08:11:22;7.52;96.85
69823;SHT31;57119;52.516;13.508;2023-04-09T08:13:51;7.40;96.78
69823;SHT31;57119;52.516;13.508;2023-04-09T08:16:17;7.34;97.24
69823;SHT31;57119;52.516;13.508;2023-04-09T08:18:42;7.48;96.82
69823;SHT31;57119;52.516;13.508;2023-04-09T08:21:07;7.62;95.97
69823;SHT31;57119;52.516;13.508;2023-04-09T08:23:33;7.54;96.05
69823;SHT31;57119;52.516;13.508;2023-04-09T08:25:58;7.44;96.50
69823;SHT31;57119;52.516;13.508;2023-04-09T08:28:23;7.56;96.08
69823;SHT31;57119;52.516;13.508;2023-04-09T08:30:49;7.38;95.83
69823;SHT31;57119;52.516;13.508;2023-04-09T08:33:15;7.21;96.44
69823;SHT31;57119;52.516;13.508;2023-04-09T08:35:41;7.31;96.28
69823;SHT31;57119;52.516;13.508;2023-04-09T08:38:06;7.54;96.30
69823;SHT31;57119;52.516;13.508;2023-04-09T08:40:35;7.73;94.99
69823;SHT31;57119;52.516;13.508;2023-04-09T08:43:03;7.83;95.40
69823;SHT31;57119;52.516;13.508;2023-04-09T08:45:29;7.99;94.07
69823;SHT31;57119;52.516;13.508;2023-04-09T08:47:55;7.97;94.40
69823;SHT31;57119;52.516;13.508;2023-04-09T08:50:26;8.13;93.41
69823;SHT31;57119;52.516;13.508;2023-04-09T08:52:52;7.99;94.56
69823;SHT31;57119;52.516;13.508;2023-04-09T08:55:17;8.24;93.96
69823;SHT31;57119;52.516;13.508;2023-04-09T08:57:43;8.58;93.06
69823;SHT31;57119;52.516;13.508;2023-04-09T09:00:08;8.82;92.85
69823;SHT31;57119;52.516;13.508;2023-04-09T09:02:34;8.89;91.77
69823;SHT31;57119;52.516;13.508;2023-04-09T09:05:00;8.93;91.98
69823;SHT31;57119;52.516;13.508;2023-04-09T09:07:29;9.15;90.80
69823;SHT31;57119;52.516;13.508;2023-04-09T09:09:56;9.36;89.97
69823;SHT31;57119;52.516;13.508;2023-04-09T09:12:39;9.30;89.84
69823;SHT31;57119;52.516;13.508;2023-04-09T09:15:24;9.20;91.03
69823;SHT31;57119;52.516;13.508;2023-04-09T09:17:53;9.41;90.66
69823;SHT31;57119;52.516;13.508;2023-04-09T09:20:20;9.70;89.30
69823;SHT31;57119;52.516;13.508;2023-04-09T09:22:48;9.65;89.56
69823;SHT31;57119;52.516;13.508;2023-04-09T09:25:14;9.73;89.42
69823;SHT31;57119;52.516;13.508;2023-04-09T09:27:39;9.79;88.34
69823;SHT31;57119;52.516;13.508;2023-04-09T09:30:06;9.92;88.27
69823;SHT31;57119;52.516;13.508;2023-04-09T09:32:33;10.32;87.68
69823;SHT31;57119;52.516;13.508;2023-04-09T09:35:06;10.23;87.01
69823;SHT31;57119;52.516;13.508;2023-04-09T09:37:32;10.26;87.53
69823;SHT31;57119;52.516;13.508;2023-04-09T09:39:59;10.25;87.07
69823;SHT31;57119;52.516;13.508;2023-04-09T09:42:25;10.09;87.50
69823;SHT31;57119;52.516;13.508;2023-04-09T09:44:52;10.09;87.83
69823;SHT31;57119;52.516;13.508;2023-04-09T09:47:18;10.13;86.67
69823;SHT31;57119;52.516;13.508;2023-04-09T09:49:44;10.36;86.12
69823;SHT31;57119;52.516;13.508;2023-04-09T09:52:10;10.50;86.00
69823;SHT31;57119;52.516;13.508;2023-04-09T09:54:40;10.56;85.53
69823;SHT31;57119;52.516;13.508;2023-04-09T09:57:10;11.05;83.69
69823;SHT31;57119;52.516;13.508;2023-04-09T09:59:40;11.47;83.14
69823;SHT31;57119;52.516;13.508;2023-04-09T10:02:15;11.91;81.32
69823;SHT31;57119;52.516;13.508;2023-04-09T10:04:42;11.58;82.11
69823;SHT31;57119;52.516;13.508;2023-04-09T10:07:08;12.08;81.84
69823;SHT31;57119;52.516;13.508;2023-04-09T10:09:40;12.70;79.64
69823;SHT31;57119;52.516;13.508;2023-04-09T10:12:08;13.20;78.82
69823;SHT31;57119;52.516;13.508;2023-04-09T10:14:35;13.15;78.32
69823;SHT31;57119;52.516;13.508;2023-04-09T10:17:04;13.44;77.54
69823;SHT31;57119;52.516;13.508;2023-04-09T10:19:34;13.20;77.27
69823;SHT31;57119;52.516;13.508;2023-04-09T10:22:09;12.86;78.87
69823;SHT31;57119;52.516;13.508;2023-04-09T10:24:35;12.94;77.93
69823;SHT31;57119;52.516;13.508;2023-04-09T10:27:11;13.38;76.63
69823;SHT31;57119;52.516;13.508;2023-04-09T10:29:42;13.08;77.24
69823;SHT31;57119;52.516;13.508;2023-04-09T10:32:09;12.85;78.29
69823;SHT31;57119;52.516;13.508;2023-04-09T10:34:43;12.70;78.10
69823;SHT31;57119;52.516;13.508;2023-04-09T10:37:29;12.11;80.05
69823;SHT31;57119;52.516;13.508;2023-04-09T10:39:55;12.59;79.25
69823;SHT31;57119;52.516;13.508;2023-04-09T10:42:22;12.52;79.14
69823;SHT31;57119;52.516;13.508;2023-04-09T10:45:11;12.87;78.41
69823;SHT31;57119;52.516;13.508;2023-04-09T10:47:39;13.31;77.70
69823;SHT31;57119;52.516;13.508;2023-04-09T10:52:51;13.65;76.51
69823;SHT31;57119;52.516;13.508;2023-04-09T10:57:56;13.75;75.69
69823;SHT31;57119;52.516;13.508;2023-04-09T11:00:21;13.47;75.85
69823;SHT31;57119;52.516;13.508;2023-04-09T11:05:34;14.98;71.93
69823;SHT31;57119;52.516;13.508;2023-04-09T11:08:12;15.15;71.43
69823;SHT31;57119;52.516;13.508;2023-04-09T11:10:40;15.44;70.55
69823;SHT31;57119;52.516;13.508;2023-04-09T11:13:09;15.03;71.30
69823;SHT31;57119;52.516;13.508;2023-04-09T11:15:35;16.06;69.32
69823;SHT31;57119;52.516;13.508;2023-04-09T11:18:02;16.38;67.69
69823;SHT31;57119;52.516;13.508;2023-04-09T11:20:27;16.76;66.83
69823;SHT31;57119;52.516;13.508;2023-04-09T11:22:55;16.55;68.41
69823;SHT31;57119;52.516;13.508;2023-04-09T11:25:29;18.66;63.39
69823;SHT31;57119;52.516;13.508;2023-04-09T11:27:55;20.33;60.23
69823;SHT31;57119;52.516;13.508;2023-04-09T11:30:20;21.38;56.33
69823;SHT31;57119;52.516;13.508;2023-04-09T11:32:47;21.81;54.72
69823;SHT31;57119;52.516;13.508;2023-04-09T11:35:15;21.60;55.18
69823;SHT31;57119;52.516;13.508;2023-04-09T11:37:41;20.50;58.53
69823;SHT31;57119;52.516;13.508;2023-04-09T11:40:15;21.38;56.20
69823;SHT31;57119;52.516;13.508;2023-04-09T11:42:44;20.30;57.99
69823;SHT31;57119;52.516;13.508;2023-04-09T11:45:11;19.86;58.53
69823;SHT31;57119;52.516;13.508;2023-04-09T11:47:38;20.30;57.56
69823;SHT31;57119;52.516;13.508;2023-04-09T11:50:06;20.10;59.00
69823;SHT31;57119;52.516;13.508;2023-04-09T11:52:32;18.65;61.78
69823;SHT31;57119;52.516;13.508;2023-04-09T11:55:03;18.62;61.63
69823;SHT31;57119;52.516;13.508;2023-04-09T11:57:47;19.89;59.09
69823;SHT31;57119;52.516;13.508;2023-04-09T12:00:14;21.09;56.54
69823;SHT31;57119;52.516;13.508;2023-04-09T12:02:43;22.72;53.87
69823;SHT31;57119;52.516;13.508;2023-04-09T12:05:10;23.06;53.21
69823;SHT31;57119;52.516;13.508;2023-04-09T12:07:37;23.30;52.72
69823;SHT31;57119;52.516;13.508;2023-04-09T12:10:07;23.55;52.54
69823;SHT31;57119;52.516;13.508;2023-04-09T12:12:41;22.51;52.38
69823;SHT31;57119;52.516;13.508;2023-04-09T12:15:25;23.54;51.84
69823;SHT31;57119;52.516;13.508;2023-04-09T12:17:56;23.11;52.35
69823;SHT31;57119;52.516;13.508;2023-04-09T12:22:55;22.60;53.91
69823;SHT31;57119;52.516;13.508;2023-04-09T12:25:21;23.27;51.01
69823;SHT31;57119;52.516;13.508;2023-04-09T12:27:46;24.40;51.32
69823;SHT31;57119;52.516;13.508;2023-04-09T12:30:12;22.66;52.04
69823;SHT31;57119;52.516;13.508;2023-04-09T12:32:37;23.37;51.82
69823;SHT31;57119;52.516;13.508;2023-04-09T12:35:03;24.12;50.14
69823;SHT31;57119;52.516;13.508;2023-04-09T12:37:28;24.37;50.72
69823;SHT31;57119;52.516;13.508;2023-04-09T12:39:54;22.86;52.29
69823;SHT31;57119;52.516;13.508;2023-04-09T12:42:19;24.53;50.10
69823;SHT31;57119;52.516;13.508;2023-04-09T12:44:44;25.16;49.46
69823;SHT31;57119;52.516;13.508;2023-04-09T12:47:10;24.58;49.08
69823;SHT31;57119;52.516;13.508;2023-04-09T12:49:36;24.58;50.49
69823;SHT31;57119;52.516;13.508;2023-04-09T12:52:01;24.67;50.69
69823;SHT31;57119;52.516;13.508;2023-04-09T12:54:27;23.89;51.85
69823;SHT31;57119;52.516;13.508;2023-04-09T12:56:52;25.04;49.32
69823;SHT31;57119;52.516;13.508;2023-04-09T12:59:32;25.02;49.25
69823;SHT31;57119;52.516;13.508;2023-04-09T13:01:57;24.87;49.39
69823;SHT31;57119;52.516;13.508;2023-04-09T13:04:22;23.78;49.56
69823;SHT31;57119;52.516;13.508;2023-04-09T13:06:48;25.29;48.32
69823;SHT31;57119;52.516;13.508;2023-04-09T13:09:14;25.97;47.64
69823;SHT31;57119;52.516;13.508;2023-04-09T13:11:39;25.50;48.79
69823;SHT31;57119;52.516;13.508;2023-04-09T13:14:05;25.35;48.27
69823;SHT31;57119;52.516;13.508;2023-04-09T13:16:31;25.18;47.51
69823;SHT31;57119;52.516;13.508;2023-04-09T13:18:57;25.39;48.62
69823;SHT31;57119;52.516;13.508;2023-04-09T13:21:22;25.27;48.68
69823;SHT31;57119;52.516;13.508;2023-04-09T13:23:47;25.66;47.11
69823;SHT31;57119;52.516;13.508;2023-04-09T13:26:13;25.20;49.09
69823;SHT31;57119;52.516;13.508;2023-04-09T13:28:38;25.04;48.23
69823;SHT31;57119;52.516;13.508;2023-04-09T13:31:04;26.09;47.84
69823;SHT31;57119;52.516;13.508;2023-04-09T13:33:30;25.23;48.08
69823;SHT31;57119;52.516;13.508;2023-04-09T13:35:56;26.59;47.70
69823;SHT31;57119;52.516;13.508;2023-04-09T13:38:21;26.99;46.60
69823;SHT31;57119;52.516;13.508;2023-04-09T13:40:47;24.74;49.55
69823;SHT31;57119;52.516;13.508;2023-04-09T13:43:12;25.32;48.38
69823;SHT31;57119;52.516;13.508;2023-04-09T13:45:38;25.06;48.02
69823;SHT31;57119;52.516;13.508;2023-04-09T13:48:05;25.78;47.52
69823;SHT31;57119;52.516;13.508;2023-04-09T13:50:31;24.63;49.01
69823;SHT31;57119;52.516;13.508;2023-04-09T13:52:59;24.99;48.99
69823;SHT31;57119;52.516;13.508;2023-04-09T13:55:26;24.99;48.21
69823;SHT31;57119;52.516;13.508;2023-04-09T13:57:52;25.35;48.65
69823;SHT31;57119;52.516;13.508;2023-04-09T14:00:17;23.59;49.84
69823;SHT31;57119;52.516;13.508;2023-04-09T14:02:43;24.79;49.29
69823;SHT31;57119;52.516;13.508;2023-04-09T14:05:09;25.66;48.45
69823;SHT31;57119;52.516;13.508;2023-04-09T14:07:35;24.95;48.95
69823;SHT31;57119;52.516;13.508;2023-04-09T14:10:00;25.85;48.31
69823;SHT31;57119;52.516;13.508;2023-04-09T14:12:26;25.27;48.24
69823;SHT31;57119;52.516;13.508;2023-04-09T14:14:51;24.84;49.59
69823;SHT31;57119;52.516;13.508;2023-04-09T14:17:16;25.06;48.39
69823;SHT31;57119;52.516;13.508;2023-04-09T14:19:42;24.31;49.68
69823;SHT31;57119;52.516;13.508;2023-04-09T14:22:07;24.92;48.92
69823;SHT31;57119;52.516;13.508;2023-04-09T14:24:33;24.40;49.87
69823;SHT31;57119;52.516;13.508;2023-04-09T14:27:07;25.36;48.72
69823;SHT31;57119;52.516;13.508;2023-04-09T14:29:32;24.87;49.04
69823;SHT31;57119;52.516;13.508;2023-04-09T14:31:58;25.35;48.56
69823;SHT31;57119;52.516;13.508;2023-04-09T14:34:24;25.88;47.42
69823;SHT31;57119;52.516;13.508;2023-04-09T14:36:50;25.47;47.94
69823;SHT31;57119;52.516;13.508;2023-04-09T14:39:15;24.61;49.37
69823;SHT31;57119;52.516;13.508;2023-04-09T14:41:40;23.89;50.30
69823;SHT31;57119;52.516;13.508;2023-04-09T14:44:06;25.20;48.97
69823;SHT31;57119;52.516;13.508;2023-04-09T14:46:31;24.95;48.50
69823;SHT31;57119;52.516;13.508;2023-04-09T14:48:57;24.67;48.59
69823;SHT31;57119;52.516;13.508;2023-04-09T14:51:22;23.96;49.67
69823;SHT31;57119;52.516;13.508;2023-04-09T14:53:47;24.63;48.52
69823;SHT31;57119;52.516;13.508;2023-04-09T14:56:13;24.19;48.48
69823;SHT31;57119;52.516;13.508;2023-04-09T14:58:38;23.73;49.52
69823;SHT31;57119;52.516;13.508;2023-04-09T15:01:03;24.34;48.87
69823;SHT31;57119;52.516;13.508;2023-04-09T15:03:29;23.43;50.50
69823;SHT31;57119;52.516;13.508;2023-04-09T15:05:54;23.17;50.61
69823;SHT31;57119;52.516;13.508;2023-04-09T15:08:20;23.37;49.77
69823;SHT31;57119;52.516;13.508;2023-04-09T15:10:46;24.14;49.27
69823;SHT31;57119;52.516;13.508;2023-04-09T15:13:11;23.64;50.21
69823;SHT31;57119;52.516;13.508;2023-04-09T15:15:39;23.16;49.75
69823;SHT31;57119;52.516;13.508;2023-04-09T15:18:04;24.06;50.22
69823;SHT31;57119;52.516;13.508;2023-04-09T15:20:34;23.41;50.03
69823;SHT31;57119;52.516;13.508;2023-04-09T15:23:00;24.61;48.47
69823;SHT31;57119;52.516;13.508;2023-04-09T15:25:25;23.31;49.84
69823;SHT31;57119;52.516;13.508;2023-04-09T15:27:51;23.24;49.88
69823;SHT31;57119;52.516;13.508;2023-04-09T15:30:16;22.67;49.64
69823;SHT31;57119;52.516;13.508;2023-04-09T15:32:41;22.49;51.36
69823;SHT31;57119;52.516;13.508;2023-04-09T15:35:07;23.14;50.69
69823;SHT31;57119;52.516;13.508;2023-04-09T15:37:33;23.20;50.96